Dallas, TX (75201)

8:26 AM CDT on March 25, 2017 (GMT -0500)
Uptown | | Change Station

Elev 452 ft 32.79 °N, 96.81 °W | Updated 14 minutes ago

Clear
Clear
58.3 °F
Feels Like 58.3 °F
N
0.6
Wind Variable Wind from SE

Today
High -- | Low -- °F
--% Chance of Precip.
Yesterday
High -- | Low -- °F
Precip. -- in
Pressure 29.99 in
Visibility 10.0 miles
Clouds Few 7000 ft
Dew Point 43 °F
Humidity 62%
Rainfall Not available.
Snow Depth Not available.
7:23 AM 7:42 PM
Waning Crescent, 8% visible
METAR KDAL 251253Z 31011KT 10SM FEW070 13/07 A3000 RMK AO2 SLP155 T01280067
Pressure 29.99 in
Visibility 10.0 miles
Clouds Few 7000 ft
Dew Point 43 °F
Humidity 62%
Rainfall Not available.
Snow Depth Not available.
7:23 AM 7:42 PM
Waning Crescent, 8% visible
METAR KDAL 251253Z 31011KT 10SM FEW070 13/07 A3000 RMK AO2 SLP155 T01280067

Get Severe Weather Alerts

Thanks for signing up!

Be on the lookout for a verification email in your inbox.

You'll start receiving the daily forecast at 8 AM.

×

10-Day Weather Forecast

Almanac

Astronomy

Mar. 25, 2017 Rise Set
Actual Time
Civil Twilight
Nautical Twilight
Astronomical Twilight
Moon
Length of Visible Light
Length of Day
Tomorrow will be .
, % of the Moon is Illuminated

Today's Extremes

State Highs State Lows

Community

WunderPhotos

Upload Photos

1,962,540 photos uploaded!

WunderBlog® & News

Nearby

Air Quality

  Air Quality AQ Index Pollutant
Not available.

Snow Depth

Station Depth Elevation

Earthquake Activity

City Distance Mag. Time & Date
Minimum magnitude displayed is 2.5.

Earthquake Activity

City Distance Mag. Time & Date
Minimum magnitude displayed is 2.5.

Coastal Water Temperatures

Place Temperature

Stations

Nearby Weather Stations

Station Location Temp. Windchill Dew Point Humidity Wind Precip. Elev Updated Type
                   

Watches & Warnings

There are currently no watches in effect.